createdAt,value
2023-01-27T08:32:31.051Z,22.47
2023-01-27T08:33:31.051Z,22.82
2023-01-27T08:34:30.974Z,22.95
2023-01-27T08:35:30.979Z,23.05
2023-01-27T08:36:30.990Z,23.14
2023-01-27T08:37:30.910Z,23.21
2023-01-27T08:38:30.925Z,23.27
2023-01-27T08:39:30.965Z,23.32
2023-01-27T08:40:30.917Z,23.36
2023-01-27T08:41:30.924Z,23.38
2023-01-27T08:42:30.932Z,23.44
2023-01-27T08:43:30.874Z,23.48
2023-01-27T08:44:30.886Z,23.52
2023-01-27T08:45:30.910Z,23.55
2023-01-27T08:46:30.883Z,23.55
2023-01-27T08:47:30.853Z,23.59
2023-01-27T08:48:30.861Z,23.63
2023-01-27T08:49:30.832Z,23.64
2023-01-27T08:50:30.803Z,23.68
2023-01-27T08:51:31.203Z,23.71
2023-01-27T08:52:30.878Z,23.72
2023-01-27T08:53:30.828Z,23.73
2023-01-27T08:54:30.786Z,23.74
2023-01-27T08:55:30.800Z,23.75
2023-01-27T08:56:30.839Z,23.78
2023-01-27T08:57:30.815Z,23.75
2023-01-27T08:58:30.758Z,23.76
2023-01-27T08:59:30.747Z,23.77
2023-01-27T09:00:30.723Z,23.78
2023-01-27T09:01:30.773Z,23.80
2023-01-27T09:02:30.754Z,23.80
2023-01-27T09:03:30.759Z,23.80
2023-01-27T09:04:30.751Z,23.81
2023-01-27T09:05:30.700Z,23.80
2023-01-27T09:06:30.677Z,23.79
2023-01-27T09:07:30.675Z,23.77
2023-01-27T09:08:30.663Z,23.80
2023-01-27T09:09:30.657Z,23.82
2023-01-27T09:10:30.654Z,23.84
2023-01-27T09:11:30.646Z,23.85
2023-01-27T09:12:30.623Z,23.87
2023-01-27T09:13:30.653Z,23.88
2023-01-27T09:14:30.630Z,23.90
2023-01-27T09:15:30.635Z,23.91
2023-01-27T09:16:30.686Z,23.93
2023-01-27T09:17:30.591Z,23.91
2023-01-27T09:18:30.609Z,23.91
2023-01-27T09:19:30.618Z,23.93
2023-01-27T09:20:30.624Z,23.94
2023-01-27T09:21:30.568Z,23.95
2023-01-27T09:22:30.555Z,23.96
2023-01-27T09:23:30.527Z,23.96
2023-01-27T09:24:30.587Z,23.95
2023-01-27T09:25:30.569Z,23.94
2023-01-27T09:26:30.514Z,23.96
2023-01-27T09:27:39.227Z,23.96
2023-01-27T09:28:31.512Z,23.99
2023-01-27T09:29:30.551Z,23.99
2023-01-27T09:30:30.511Z,24.00
2023-01-27T09:31:30.608Z,24.03
2023-01-27T09:32:30.469Z,24.02
2023-01-27T09:33:30.496Z,24.06
2023-01-27T09:34:30.461Z,24.07
2023-01-27T09:35:30.459Z,24.08
2023-01-27T09:36:30.432Z,24.12
2023-01-27T09:37:30.474Z,24.16
2023-01-27T09:38:30.681Z,24.17
2023-01-27T09:39:30.411Z,24.18
2023-01-27T09:40:30.451Z,24.20
2023-01-27T09:41:30.431Z,24.22
2023-01-27T09:42:30.409Z,24.23
2023-01-27T09:43:30.406Z,24.23
2023-01-27T09:44:30.382Z,24.24
2023-01-27T09:45:30.368Z,24.25
2023-01-27T09:46:31.077Z,24.26
2023-01-27T09:47:30.331Z,24.24
2023-01-27T09:48:30.355Z,24.20
2023-01-27T09:49:30.352Z,24.21
2023-01-27T09:50:30.367Z,24.22
2023-01-27T09:51:30.319Z,24.22
2023-01-27T09:52:45.411Z,24.23
2023-01-27T09:53:31.286Z,24.22
2023-01-27T09:54:30.315Z,24.26
2023-01-27T09:55:30.284Z,24.26
2023-01-27T09:56:30.264Z,24.27
2023-01-27T09:57:30.311Z,24.26
2023-01-27T09:58:30.244Z,24.26
2023-01-27T09:59:30.270Z,24.28
2023-01-27T10:00:30.248Z,24.27
2023-01-27T10:01:30.285Z,24.29
2023-01-27T10:02:30.194Z,24.28
2023-01-27T10:03:30.199Z,24.29
2023-01-27T10:04:30.251Z,24.30
2023-01-27T10:05:30.185Z,24.31
2023-01-27T10:06:30.201Z,24.31
2023-01-27T10:07:30.274Z,24.33
2023-01-27T10:08:30.177Z,24.34
2023-01-27T10:09:30.167Z,24.34
2023-01-27T10:10:30.174Z,24.34
2023-01-27T10:11:30.165Z,24.33
2023-01-27T10:12:30.179Z,24.33
2023-01-27T10:13:30.126Z,24.33
2023-01-27T10:14:30.106Z,24.31
2023-01-27T10:15:30.111Z,24.31
2023-01-27T10:16:31.221Z,24.29
2023-01-27T10:17:30.129Z,24.32
2023-01-27T10:18:30.133Z,24.33
2023-01-27T10:19:30.082Z,24.33
2023-01-27T10:20:30.070Z,24.34
2023-01-27T10:21:30.122Z,24.35
2023-01-27T10:22:30.057Z,24.36
2023-01-27T10:23:30.132Z,24.32
2023-01-27T10:24:30.047Z,24.28
2023-01-27T10:25:30.091Z,24.22
2023-01-27T10:26:30.032Z,24.21
2023-01-27T10:27:30.103Z,24.20
2023-01-27T10:28:30.010Z,24.18
2023-01-27T10:29:30.008Z,24.16
2023-01-27T10:30:30.015Z,24.17
2023-01-27T10:31:30.151Z,24.20
2023-01-27T10:32:29.991Z,24.18
2023-01-27T10:33:29.964Z,24.18
2023-01-27T10:34:29.971Z,24.18
2023-01-27T10:35:30.050Z,24.20
2023-01-27T10:36:29.973Z,24.19
2023-01-27T10:37:29.908Z,24.19
2023-01-27T10:38:29.920Z,24.19
2023-01-27T10:39:29.933Z,24.18
2023-01-27T10:40:29.913Z,24.18
2023-01-27T10:41:29.907Z,24.19
2023-01-27T10:42:29.906Z,24.20
2023-01-27T10:43:29.864Z,24.20
2023-01-27T10:44:29.864Z,24.21
2023-01-27T10:45:30.602Z,24.20
2023-01-27T10:46:29.863Z,24.21
2023-01-27T10:47:29.851Z,24.22
2023-01-27T10:48:29.839Z,24.21
2023-01-27T10:49:29.842Z,24.21
2023-01-27T10:50:29.794Z,24.18
2023-01-27T10:51:30.191Z,24.18
2023-01-27T10:52:29.819Z,24.17
